Time;durP1;ratioP1;P1;durP2;ratioP2;P2;SDS_P1;SDS_P2;PMS_P1;PMS_P2;Temp;Humidity;BMP_temperature;BMP_pressure;BME280_temperature;BME280_humidity;BME280_pressure;Samples;Min_cycle;Max_cycle;Signal;HPM_P1;HPM_P2
2021/12/02 00:02:25;;;;;;;2.20;1.20;;;;;;;;;;5066964;28;20285;-65
2021/12/02 00:04:53;;;;;;;2.10;1.00;;;;;;;;;;5053142;28;20194;-64
2021/12/02 00:07:23;;;;;;;2.03;1.15;;;;;;;;;;5052943;28;20191;-65
2021/12/02 00:09:55;;;;;;;1.98;1.33;;;;;;;;;;5053068;28;20551;-65
2021/12/02 00:12:25;;;;;;;1.90;1.10;;;;;;;;;;5069485;28;20529;-65
2021/12/02 00:14:53;;;;;;;2.60;1.25;;;;;;;;;;5070558;28;20194;-65
2021/12/02 00:17:26;;;;;;;4.93;1.35;;;;;;;;;;5070112;28;20267;-64
2021/12/02 00:22:49;;;;;;;2.10;1.00;;;;;;;;;;5068987;28;20557;-64
2021/12/02 00:25:17;;;;;;;2.13;1.15;;;;;;;;;;5067383;28;20226;-64
2021/12/02 00:27:45;;;;;;;1.90;1.17;;;;;;;;;;5070445;28;20591;-63
2021/12/02 00:30:13;;;;;;;1.65;0.70;;;;;;;;;;5072440;28;20187;-64
2021/12/02 00:32:48;;;;;;;2.20;1.15;;;;;;;;;;5073093;28;20247;-65
2021/12/02 00:35:17;;;;;;;3.28;1.23;;;;;;;;;;5072686;28;20193;-65
2021/12/02 00:37:48;;;;;;;1.70;0.80;;;;;;;;;;5072915;28;20522;-64
2021/12/02 00:40:18;;;;;;;2.08;0.90;;;;;;;;;;5072303;28;20194;-64
2021/12/02 00:42:46;;;;;;;1.85;1.00;;;;;;;;;;5072702;28;20221;-65
2021/12/02 00:45:15;;;;;;;5.13;1.20;;;;;;;;;;5071946;28;20186;-65
2021/12/02 00:47:49;;;;;;;2.10;1.20;;;;;;;;;;5072624;28;20194;-64
2021/12/02 00:50:19;;;;;;;1.70;0.90;;;;;;;;;;5072214;28;20190;-65
2021/12/02 00:52:49;;;;;;;2.10;1.20;;;;;;;;;;5072431;28;20637;-64
2021/12/02 00:55:17;;;;;;;2.55;1.10;;;;;;;;;;5072696;28;20550;-64
2021/12/02 00:57:49;;;;;;;1.73;0.98;;;;;;;;;;5072431;28;20186;-64
2021/12/02 01:00:17;;;;;;;2.22;0.90;;;;;;;;;;5072118;28;20708;-64
2021/12/02 01:02:50;;;;;;;2.17;1.10;;;;;;;;;;5071967;28;20194;-64
2021/12/02 01:05:20;;;;;;;2.25;1.10;;;;;;;;;;5072347;28;20236;-64
2021/12/02 01:07:48;;;;;;;1.77;0.90;;;;;;;;;;5071594;28;20543;-64
2021/12/02 01:10:20;;;;;;;1.80;0.95;;;;;;;;;;5071433;28;20616;-66
2021/12/02 01:12:51;;;;;;;1.98;1.40;;;;;;;;;;5071956;28;20273;-64
2021/12/02 01:15:20;;;;;;;1.80;1.00;;;;;;;;;;5072090;28;20325;-64
2021/12/02 01:17:49;;;;;;;1.88;1.00;;;;;;;;;;5071213;28;20190;-64
2021/12/02 01:20:18;;;;;;;1.60;0.82;;;;;;;;;;5072324;28;20546;-65
2021/12/02 01:22:46;;;;;;;1.50;0.82;;;;;;;;;;5072210;28;20195;-64
2021/12/02 01:25:14;;;;;;;1.70;0.90;;;;;;;;;;5071712;28;20309;-64
2021/12/02 01:27:42;;;;;;;1.60;0.90;;;;;;;;;;5071809;28;20193;-64
2021/12/02 01:30:11;;;;;;;4.35;0.75;;;;;;;;;;5072032;28;20248;-64
2021/12/02 01:32:40;;;;;;;2.05;0.93;;;;;;;;;;5072078;28;20197;-64
2021/12/02 01:35:11;;;;;;;1.60;0.80;;;;;;;;;;5072191;28;20225;-64
2021/12/02 01:37:40;;;;;;;1.70;0.80;;;;;;;;;;5072031;28;20621;-65
2021/12/02 01:40:08;;;;;;;1.67;0.90;;;;;;;;;;5071498;28;20194;-64
2021/12/02 01:42:39;;;;;;;2.88;1.00;;;;;;;;;;5072023;28;20237;-64
2021/12/02 01:45:10;;;;;;;1.95;1.00;;;;;;;;;;5071345;28;20685;-64
2021/12/02 01:47:38;;;;;;;2.03;0.77;;;;;;;;;;5071867;28;20649;-65
2021/12/02 01:50:07;;;;;;;1.73;0.80;;;;;;;;;;5071401;28;20225;-64
2021/12/02 01:52:45;;;;;;;1.60;0.80;;;;;;;;;;5071977;28;20197;-64
2021/12/02 01:55:15;;;;;;;3.25;0.98;;;;;;;;;;5071453;28;20198;-64
2021/12/02 01:57:44;;;;;;;2.80;0.98;;;;;;;;;;5072230;28;20236;-64
2021/12/02 02:00:14;;;;;;;1.60;0.82;;;;;;;;;;5071595;28;20713;-64
2021/12/02 02:02:42;;;;;;;1.80;0.90;;;;;;;;;;5070626;28;20192;-63
2021/12/02 02:05:12;;;;;;;2.00;0.75;;;;;;;;;;5071708;28;20198;-64
2021/12/02 02:07:48;;;;;;;1.77;0.70;;;;;;;;;;5071448;28;20664;-64
2021/12/02 02:10:18;;;;;;;1.70;0.73;;;;;;;;;;5071743;28;20265;-64
2021/12/02 02:12:46;;;;;;;1.60;0.90;;;;;;;;;;5070840;28;20186;-64
2021/12/02 02:15:14;;;;;;;1.65;0.80;;;;;;;;;;5070994;28;20720;-63
2021/12/02 02:17:52;;;;;;;2.50;1.17;;;;;;;;;;5071373;28;20225;-64
2021/12/02 02:20:24;;;;;;;1.50;0.68;;;;;;;;;;5071753;28;20194;-64
2021/12/02 02:22:53;;;;;;;2.25;1.10;;;;;;;;;;5074597;28;20190;-65
2021/12/02 02:25:21;;;;;;;3.45;0.75;;;;;;;;;;5075311;28;20277;-64
2021/12/02 02:27:49;;;;;;;1.90;0.80;;;;;;;;;;5074781;28;20194;-65
2021/12/02 02:30:17;;;;;;;1.60;0.70;;;;;;;;;;5075282;28;20323;-64
2021/12/02 02:32:47;;;;;;;1.70;0.90;;;;;;;;;;5074816;28;20227;-64
2021/12/02 02:35:21;;;;;;;1.88;0.80;;;;;;;;;;5075138;28;20194;-64
2021/12/02 02:37:53;;;;;;;2.15;0.80;;;;;;;;;;5074904;28;20214;-64
2021/12/02 02:40:24;;;;;;;1.50;0.70;;;;;;;;;;5075060;28;20186;-65
2021/12/02 02:42:57;;;;;;;1.80;0.88;;;;;;;;;;5074267;28;20321;-65
2021/12/02 02:45:27;;;;;;;2.47;1.00;;;;;;;;;;5074966;28;20621;-64
2021/12/02 02:47:55;;;;;;;2.88;0.90;;;;;;;;;;5074631;28;20278;-65
2021/12/02 02:50:25;;;;;;;2.03;0.80;;;;;;;;;;5074956;28;20264;-64
2021/12/02 02:52:59;;;;;;;1.70;1.00;;;;;;;;;;5074333;28;20186;-64
2021/12/02 02:55:27;;;;;;;1.65;0.70;;;;;;;;;;5074762;28;20186;-64
2021/12/02 02:58:02;;;;;;;1.70;0.77;;;;;;;;;;5074176;28;20189;-65
2021/12/02 03:00:32;;;;;;;2.10;1.13;;;;;;;;;;5074215;28;20181;-64
2021/12/02 03:03:14;;;;;;;2.30;0.90;;;;;;;;;;5074153;28;20191;-64
2021/12/02 03:06:01;;;;;;;1.80;0.90;;;;;;;;;;5074633;28;20200;-64
2021/12/02 03:08:41;;;;;;;2.13;1.00;;;;;;;;;;5074083;28;20186;-64
2021/12/02 03:11:20;;;;;;;1.50;0.60;;;;;;;;;;5073822;28;20185;-65
2021/12/02 03:13:51;;;;;;;2.10;0.90;;;;;;;;;;5074615;28;20247;-65
2021/12/02 03:19:06;;;;;;;3.05;0.80;;;;;;;;;;5074499;28;20190;-64
2021/12/02 03:21:34;;;;;;;1.70;0.60;;;;;;;;;;5073889;28;20289;-65
2021/12/02 03:24:04;;;;;;;2.25;1.00;;;;;;;;;;5073040;28;20213;-64
2021/12/02 03:26:32;;;;;;;2.55;0.80;;;;;;;;;;5073820;28;20225;-65
2021/12/02 03:29:03;;;;;;;2.40;0.80;;;;;;;;;;5073917;28;20214;-64
2021/12/02 03:31:36;;;;;;;2.97;0.88;;;;;;;;;;5073532;28;20191;-64
2021/12/02 03:34:06;;;;;;;2.05;1.13;;;;;;;;;;5072988;28;20209;-65
2021/12/02 03:36:37;;;;;;;2.10;0.93;;;;;;;;;;5073512;28;20232;-64
2021/12/02 03:39:09;;;;;;;1.40;0.60;;;;;;;;;;5073991;28;20198;-64
2021/12/02 03:41:40;;;;;;;1.60;0.80;;;;;;;;;;5073528;28;20190;-64
2021/12/02 03:44:08;;;;;;;5.85;1.42;;;;;;;;;;5073939;28;20277;-64
2021/12/02 03:46:38;;;;;;;1.60;0.80;;;;;;;;;;5073292;28;20265;-64
2021/12/02 03:49:15;;;;;;;1.88;0.65;;;;;;;;;;5073316;28;20289;-64
2021/12/02 03:51:46;;;;;;;3.67;1.05;;;;;;;;;;5073853;28;20196;-65
2021/12/02 03:54:16;;;;;;;3.15;0.80;;;;;;;;;;5073432;28;20277;-64
2021/12/02 03:56:52;;;;;;;1.40;0.60;;;;;;;;;;5073906;28;20190;-64
2021/12/02 03:59:19;;;;;;;1.75;0.70;;;;;;;;;;5073419;28;20185;-65
2021/12/02 04:01:53;;;;;;;1.73;0.70;;;;;;;;;;5073831;28;20190;-64
2021/12/02 04:04:31;;;;;;;2.08;1.08;;;;;;;;;;5073330;28;20194;-65
2021/12/02 04:07:00;;;;;;;1.80;0.90;;;;;;;;;;5073593;28;20236;-65
2021/12/02 04:09:36;;;;;;;2.15;0.80;;;;;;;;;;5073126;28;20296;-64
2021/12/02 04:12:08;;;;;;;2.42;0.70;;;;;;;;;;5073580;28;20201;-64
2021/12/02 04:14:40;;;;;;;1.80;1.23;;;;;;;;;;5072908;28;20190;-64
2021/12/02 04:17:09;;;;;;;2.88;0.80;;;;;;;;;;5073318;28;20375;-64
2021/12/02 04:19:38;;;;;;;1.55;0.80;;;;;;;;;;5073091;28;20194;-64
2021/12/02 04:22:06;;;;;;;1.70;0.80;;;;;;;;;;5073320;28;20225;-63
2021/12/02 04:24:35;;;;;;;2.28;0.70;;;;;;;;;;5072949;28;20190;-64
2021/12/02 04:27:10;;;;;;;2.05;0.90;;;;;;;;;;5073140;28;20237;-64
2021/12/02 04:29:37;;;;;;;1.90;1.05;;;;;;;;;;5072346;28;20227;-64
2021/12/02 04:32:05;;;;;;;1.50;0.70;;;;;;;;;;5073131;28;20282;-64
2021/12/02 04:34:36;;;;;;;1.60;0.70;;;;;;;;;;5072683;28;20182;-64
2021/12/02 04:37:09;;;;;;;4.55;0.80;;;;;;;;;;5072308;28;20243;-63
2021/12/02 04:39:38;;;;;;;1.75;0.80;;;;;;;;;;5072552;28;20190;-64
2021/12/02 04:42:06;;;;;;;1.50;0.70;;;;;;;;;;5072849;28;20194;-64
2021/12/02 04:44:34;;;;;;;1.70;0.82;;;;;;;;;;5072402;28;20213;-64
2021/12/02 04:47:02;;;;;;;4.00;1.00;;;;;;;;;;5072751;28;20189;-65
2021/12/02 04:49:30;;;;;;;1.60;0.70;;;;;;;;;;5072376;28;20232;-64
2021/12/02 04:51:57;;;;;;;1.40;0.68;;;;;;;;;;5072056;28;20714;-64
2021/12/02 04:54:27;;;;;;;2.45;0.90;;;;;;;;;;5072296;28;20193;-64
2021/12/02 04:56:56;;;;;;;1.40;0.60;;;;;;;;;;5052656;28;20696;-64
2021/12/02 04:59:23;;;;;;;1.50;0.70;;;;;;;;;;5066382;28;20194;-65
2021/12/02 05:01:53;;;;;;;1.75;0.82;;;;;;;;;;5072626;28;20716;-66
2021/12/02 05:04:23;;;;;;;2.15;0.77;;;;;;;;;;5072466;28;20194;-65
2021/12/02 05:06:55;;;;;;;1.70;0.80;;;;;;;;;;5072657;28;20197;-64
2021/12/02 05:09:36;;;;;;;1.60;0.82;;;;;;;;;;5072170;28;20312;-65
2021/12/02 05:12:08;;;;;;;4.20;0.80;;;;;;;;;;5072502;28;20688;-64
2021/12/02 05:14:38;;;;;;;1.70;0.85;;;;;;;;;;5071978;28;20623;-64
2021/12/02 05:17:09;;;;;;;1.50;0.70;;;;;;;;;;5072485;28;20235;-68
2021/12/02 05:19:39;;;;;;;1.40;0.60;;;;;;;;;;5071660;28;20182;-64
2021/12/02 05:22:08;;;;;;;1.60;0.80;;;;;;;;;;5072330;28;20194;-64
2021/12/02 05:24:38;;;;;;;3.35;0.90;;;;;;;;;;5072516;28;20194;-64
2021/12/02 05:27:06;;;;;;;2.17;0.70;;;;;;;;;;5071742;28;20277;-64
2021/12/02 05:29:35;;;;;;;1.70;0.80;;;;;;;;;;5072116;28;20255;-64
2021/12/02 05:32:03;;;;;;;2.97;1.15;;;;;;;;;;5071967;28;20557;-64
2021/12/02 05:34:32;;;;;;;1.50;0.80;;;;;;;;;;5072315;28;20281;-64
2021/12/02 05:37:02;;;;;;;1.50;0.63;;;;;;;;;;5071546;28;20194;-64
2021/12/02 05:39:30;;;;;;;1.75;0.85;;;;;;;;;;5072108;28;20201;-64
2021/12/02 05:42:01;;;;;;;1.60;0.80;;;;;;;;;;5071713;28;20281;-65
2021/12/02 05:44:31;;;;;;;1.77;0.80;;;;;;;;;;5071971;28;20246;-65
2021/12/02 05:47:00;;;;;;;1.60;0.75;;;;;;;;;;5071998;28;20198;-64
2021/12/02 05:49:31;;;;;;;1.60;0.80;;;;;;;;;;5072042;28;20206;-64
2021/12/02 05:51:58;;;;;;;3.00;1.00;;;;;;;;;;5071481;28;20274;-64
2021/12/02 05:54:26;;;;;;;1.50;0.60;;;;;;;;;;5071427;28;20685;-65
2021/12/02 05:56:56;;;;;;;1.98;0.88;;;;;;;;;;5074020;28;20243;-64
2021/12/02 05:59:25;;;;;;;3.15;1.00;;;;;;;;;;5075740;28;20194;-65
2021/12/02 06:01:58;;;;;;;1.55;0.77;;;;;;;;;;5075372;28;20197;-65
2021/12/02 06:04:30;;;;;;;1.73;0.82;;;;;;;;;;5075829;28;20186;-64
2021/12/02 06:06:57;;;;;;;1.60;0.90;;;;;;;;;;5075973;28;20195;-64
2021/12/02 06:09:25;;;;;;;4.45;1.00;;;;;;;;;;5075440;28;20291;-64
2021/12/02 06:11:55;;;;;;;2.00;1.00;;;;;;;;;;5075799;28;20197;-65
2021/12/02 06:14:23;;;;;;;2.25;0.95;;;;;;;;;;5075165;28;20198;-66
2021/12/02 06:16:50;;;;;;;1.70;0.90;;;;;;;;;;5075075;28;20284;-65
2021/12/02 06:19:18;;;;;;;1.70;1.00;;;;;;;;;;5075701;28;20221;-66
2021/12/02 06:21:51;;;;;;;1.60;0.88;;;;;;;;;;5074993;28;20240;-63
2021/12/02 06:24:28;;;;;;;2.10;1.00;;;;;;;;;;5055559;28;20282;-65
2021/12/02 06:26:57;;;;;;;1.85;1.00;;;;;;;;;;5062592;28;20195;-65
2021/12/02 06:29:25;;;;;;;1.73;0.95;;;;;;;;;;5058816;28;20195;-65
2021/12/02 06:31:54;;;;;;;4.03;1.83;;;;;;;;;;5063897;28;20182;-64
2021/12/02 06:34:21;;;;;;;1.75;0.80;;;;;;;;;;5072546;28;20240;-64
2021/12/02 06:36:53;;;;;;;3.25;1.05;;;;;;;;;;5071096;28;20222;-65
2021/12/02 06:39:21;;;;;;;2.03;1.10;;;;;;;;;;5065537;28;20260;-65
2021/12/02 06:41:59;;;;;;;3.38;2.10;;;;;;;;;;5058834;28;20225;-64
2021/12/02 06:44:28;;;;;;;4.10;1.15;;;;;;;;;;5069015;28;20193;-64
2021/12/02 06:46:56;;;;;;;2.33;1.50;;;;;;;;;;5064798;28;20717;-64
2021/12/02 06:49:27;;;;;;;4.57;1.70;;;;;;;;;;5054760;28;20202;-65
2021/12/02 06:52:02;;;;;;;2.67;1.55;;;;;;;;;;5068439;28;20331;-65
2021/12/02 06:54:32;;;;;;;2.00;1.17;;;;;;;;;;5072669;28;20243;-64
2021/12/02 06:56:59;;;;;;;2.60;1.00;;;;;;;;;;5069377;28;20190;-64
2021/12/02 06:59:27;;;;;;;1.70;0.90;;;;;;;;;;5061321;28;20552;-63
2021/12/02 07:01:57;;;;;;;4.15;1.13;;;;;;;;;;5058546;28;20183;-64
2021/12/02 07:04:30;;;;;;;2.45;1.45;;;;;;;;;;5057526;28;20186;-64
2021/12/02 07:06:59;;;;;;;2.38;1.00;;;;;;;;;;5054513;28;20575;-64
2021/12/02 07:09:34;;;;;;;2.45;1.25;;;;;;;;;;5063306;28;21080;-63
2021/12/02 07:12:02;;;;;;;3.10;1.55;;;;;;;;;;5065525;28;20562;-65
2021/12/02 07:14:34;;;;;;;3.40;2.15;;;;;;;;;;5063434;28;20598;-65
2021/12/02 07:17:02;;;;;;;4.68;3.22;;;;;;;;;;5064031;28;20662;-65
2021/12/02 07:19:38;;;;;;;2.88;1.50;;;;;;;;;;5063086;28;20190;-67
2021/12/02 07:22:13;;;;;;;3.30;2.03;;;;;;;;;;5063988;28;20200;-67
2021/12/02 07:24:47;;;;;;;3.03;1.35;;;;;;;;;;5056979;28;20691;-65
2021/12/02 07:27:18;;;;;;;2.38;1.35;;;;;;;;;;5055989;28;20217;-65
2021/12/02 07:29:58;;;;;;;2.97;1.10;;;;;;;;;;5057315;28;20191;-65
2021/12/02 07:32:36;;;;;;;2.80;1.70;;;;;;;;;;5068998;28;20201;-64
2021/12/02 07:35:10;;;;;;;3.45;1.40;;;;;;;;;;5071008;28;20218;-64
2021/12/02 07:37:41;;;;;;;3.60;1.63;;;;;;;;;;5071081;28;20208;-65
2021/12/02 07:40:12;;;;;;;2.40;1.08;;;;;;;;;;5063822;28;20191;-66
2021/12/02 07:42:39;;;;;;;10.07;1.58;;;;;;;;;;5062030;28;20283;-65
2021/12/02 07:45:10;;;;;;;2.25;1.10;;;;;;;;;;5062829;28;20182;-68
2021/12/02 07:47:40;;;;;;;5.22;1.60;;;;;;;;;;5062441;28;20190;-65
2021/12/02 07:50:08;;;;;;;3.90;1.35;;;;;;;;;;5062576;28;20206;-65
2021/12/02 07:52:45;;;;;;;2.10;1.10;;;;;;;;;;5061235;28;20199;-69
2021/12/02 07:55:15;;;;;;;3.28;1.30;;;;;;;;;;5062609;28;20633;-65
2021/12/02 07:57:44;;;;;;;2.60;0.90;;;;;;;;;;5063064;28;20186;-64
2021/12/02 08:00:14;;;;;;;1.63;0.85;;;;;;;;;;5063602;28;20259;-65
2021/12/02 08:02:44;;;;;;;6.07;2.70;;;;;;;;;;5060096;28;20646;-65
2021/12/02 08:05:12;;;;;;;2.38;1.20;;;;;;;;;;5056258;28;20191;-64
2021/12/02 08:07:45;;;;;;;4.13;1.90;;;;;;;;;;5053408;28;20523;-64
2021/12/02 08:10:13;;;;;;;2.22;1.23;;;;;;;;;;5063166;28;20194;-64
2021/12/02 08:12:47;;;;;;;3.67;1.48;;;;;;;;;;5056478;28;20187;-64
2021/12/02 08:15:15;;;;;;;3.17;1.40;;;;;;;;;;5056221;28;20279;-64
2021/12/02 08:17:44;;;;;;;2.50;1.20;;;;;;;;;;5054881;28;20233;-65
2021/12/02 08:20:12;;;;;;;2.55;1.27;;;;;;;;;;5052465;28;20237;-63
2021/12/02 08:22:41;;;;;;;3.22;1.50;;;;;;;;;;5054892;28;20198;-64
2021/12/02 08:25:11;;;;;;;2.95;1.70;;;;;;;;;;5057684;28;20534;-66
2021/12/02 08:27:46;;;;;;;2.50;1.42;;;;;;;;;;5053050;28;20317;-64
2021/12/02 08:30:16;;;;;;;2.95;1.60;;;;;;;;;;5056698;28;20192;-64
2021/12/02 08:32:47;;;;;;;5.47;1.90;;;;;;;;;;5072668;28;20194;-64
2021/12/02 08:35:17;;;;;;;1.80;1.08;;;;;;;;;;5072979;28;20291;-64
2021/12/02 08:37:53;;;;;;;2.70;1.25;;;;;;;;;;5072939;28;20186;-66
2021/12/02 08:40:30;;;;;;;4.90;1.15;;;;;;;;;;5073417;28;20528;-65
2021/12/02 08:43:00;;;;;;;6.60;1.40;;;;;;;;;;5073387;28;20193;-64
2021/12/02 08:45:31;;;;;;;2.67;1.20;;;;;;;;;;5073209;28;20587;-64
2021/12/02 08:48:03;;;;;;;3.70;1.23;;;;;;;;;;5073026;28;20541;-64
2021/12/02 08:50:30;;;;;;;2.47;1.17;;;;;;;;;;5073114;28;20694;-65
2021/12/02 08:53:02;;;;;;;2.10;1.00;;;;;;;;;;5072563;28;20190;-65
2021/12/02 08:55:33;;;;;;;3.00;1.50;;;;;;;;;;5069569;28;20652;-65
2021/12/02 08:58:06;;;;;;;11.05;1.38;;;;;;;;;;5070841;28;20294;-65
2021/12/02 09:00:40;;;;;;;1.60;0.80;;;;;;;;;;5071153;28;20292;-64
2021/12/02 09:03:09;;;;;;;2.38;0.70;;;;;;;;;;5070581;28;20197;-65
2021/12/02 09:05:37;;;;;;;1.80;0.70;;;;;;;;;;5068023;28;20217;-64
2021/12/02 09:08:08;;;;;;;2.95;0.77;;;;;;;;;;5070868;28;20202;-65
2021/12/02 09:10:36;;;;;;;2.33;0.82;;;;;;;;;;5070804;28;20354;-64
2021/12/02 09:13:08;;;;;;;3.05;1.08;;;;;;;;;;5071232;28;20641;-65
2021/12/02 09:15:43;;;;;;;4.35;2.70;;;;;;;;;;5071129;28;20615;-64
2021/12/02 09:18:11;;;;;;;2.78;1.25;;;;;;;;;;5071593;28;20238;-65
2021/12/02 09:20:38;;;;;;;4.15;1.20;;;;;;;;;;5071650;28;20637;-64
2021/12/02 09:23:18;;;;;;;2.03;0.70;;;;;;;;;;5071084;28;20195;-65
2021/12/02 09:25:51;;;;;;;1.83;0.67;;;;;;;;;;5070494;28;20206;-66
2021/12/02 09:28:20;;;;;;;2.57;0.90;;;;;;;;;;5070684;28;20432;-66
2021/12/02 09:30:52;;;;;;;1.80;0.93;;;;;;;;;;5070146;28;20511;-65
2021/12/02 09:33:20;;;;;;;2.93;0.97;;;;;;;;;;5070815;28;20964;-65
2021/12/02 09:35:52;;;;;;;1.90;0.80;;;;;;;;;;5071251;28;20454;-65
2021/12/02 09:38:24;;;;;;;3.13;0.93;;;;;;;;;;5071302;28;20440;-66
2021/12/02 09:40:56;;;;;;;2.67;0.80;;;;;;;;;;5067996;28;20844;-66
2021/12/02 09:43:23;;;;;;;2.03;0.80;;;;;;;;;;5069294;28;20919;-65
2021/12/02 09:45:56;;;;;;;2.47;0.90;;;;;;;;;;5070861;28;20436;-67
2021/12/02 09:48:24;;;;;;;3.40;1.00;;;;;;;;;;5071303;28;20440;-66
2021/12/02 09:51:03;;;;;;;1.77;0.80;;;;;;;;;;5067720;28;20568;-65
2021/12/02 09:53:48;;;;;;;4.23;1.20;;;;;;;;;;5070389;28;20847;-65
2021/12/02 09:56:22;;;;;;;2.70;0.80;;;;;;;;;;5070923;28;20447;-66
2021/12/02 09:58:53;;;;;;;3.67;1.03;;;;;;;;;;5070767;28;20431;-65
2021/12/02 10:01:27;;;;;;;2.63;0.90;;;;;;;;;;5071279;28;20795;-65
2021/12/02 10:04:02;;;;;;;2.57;1.43;;;;;;;;;;5065888;28;20462;-66
2021/12/02 10:06:33;;;;;;;3.40;0.80;;;;;;;;;;5070963;28;20805;-65
2021/12/02 10:09:10;;;;;;;2.00;0.70;;;;;;;;;;5070970;28;20801;-65
2021/12/02 10:11:39;;;;;;;1.97;1.00;;;;;;;;;;5070650;28;20474;-65
2021/12/02 10:14:15;;;;;;;2.90;1.00;;;;;;;;;;5068595;28;20440;-65
2021/12/02 10:16:45;;;;;;;1.83;0.73;;;;;;;;;;5068671;28;20476;-65
2021/12/02 10:19:16;;;;;;;2.37;1.20;;;;;;;;;;5051421;28;20448;-66
2021/12/02 10:21:53;;;;;;;2.57;1.00;;;;;;;;;;5057687;28;20440;-64
2021/12/02 10:24:30;;;;;;;4.37;0.90;;;;;;;;;;5068473;28;20531;-65
2021/12/02 10:27:04;;;;;;;2.27;0.97;;;;;;;;;;5067585;28;20439;-65
2021/12/02 10:29:32;;;;;;;2.30;0.90;;;;;;;;;;5067576;28;20526;-65
2021/12/02 10:32:09;;;;;;;1.90;0.93;;;;;;;;;;5070758;28;20488;-65
2021/12/02 10:34:55;;;;;;;3.83;1.00;;;;;;;;;;5065950;28;20440;-64
2021/12/02 10:37:26;;;;;;;2.20;0.80;;;;;;;;;;5070438;28;20436;-65
2021/12/02 10:39:57;;;;;;;2.47;0.90;;;;;;;;;;5070569;28;20760;-65
2021/12/02 10:42:25;;;;;;;3.50;1.10;;;;;;;;;;5070381;28;20651;-65
2021/12/02 10:45:01;;;;;;;2.55;1.13;;;;;;;;;;5071868;28;20271;-65
2021/12/02 10:47:32;;;;;;;3.95;1.38;;;;;;;;;;5073425;28;20285;-65
2021/12/02 10:50:11;;;;;;;1.98;0.85;;;;;;;;;;5073975;28;20201;-65
2021/12/02 10:52:39;;;;;;;3.75;1.05;;;;;;;;;;5071926;28;20287;-64
2021/12/02 10:55:13;;;;;;;3.33;1.10;;;;;;;;;;5073671;28;20649;-63
2021/12/02 10:57:49;;;;;;;5.18;1.10;;;;;;;;;;5072129;28;20225;-63
2021/12/02 11:00:20;;;;;;;2.72;1.38;;;;;;;;;;5072901;28;20618;-65
2021/12/02 11:02:54;;;;;;;5.82;1.20;;;;;;;;;;5072869;28;20201;-66
2021/12/02 11:05:28;;;;;;;2.53;1.00;;;;;;;;;;5073423;28;20205;-65
2021/12/02 11:07:58;;;;;;;2.10;0.95;;;;;;;;;;5073657;28;20202;-65
2021/12/02 11:10:26;;;;;;;2.88;1.17;;;;;;;;;;5073902;28;20202;-65
2021/12/02 11:12:58;;;;;;;5.75;1.38;;;;;;;;;;5073049;28;20222;-64
2021/12/02 11:15:30;;;;;;;2.58;0.90;;;;;;;;;;5071873;28;20226;-64
2021/12/02 11:18:03;;;;;;;2.72;1.10;;;;;;;;;;5073556;28;20198;-64
2021/12/02 11:20:41;;;;;;;2.72;1.00;;;;;;;;;;5072212;28;20676;-65
2021/12/02 11:23:09;;;;;;;2.90;1.35;;;;;;;;;;5072162;28;20210;-64
2021/12/02 11:25:39;;;;;;;2.13;0.90;;;;;;;;;;5073459;28;20198;-64
2021/12/02 11:28:09;;;;;;;2.85;1.83;;;;;;;;;;5074903;28;20201;-65
2021/12/02 11:30:37;;;;;;;4.80;3.55;;;;;;;;;;5074620;28;20259;-65
2021/12/02 11:33:06;;;;;;;3.95;1.92;;;;;;;;;;5074313;28;20222;-65
2021/12/02 11:35:34;;;;;;;4.85;1.20;;;;;;;;;;5074648;28;20198;-65
2021/12/02 11:38:04;;;;;;;3.17;1.00;;;;;;;;;;5074500;28;20205;-65
2021/12/02 11:40:35;;;;;;;2.60;1.50;;;;;;;;;;5074540;28;20189;-64
2021/12/02 11:43:03;;;;;;;1.80;0.90;;;;;;;;;;5071963;28;20448;-67
2021/12/02 11:45:31;;;;;;;3.30;1.17;;;;;;;;;;5073671;28;20950;-65
2021/12/02 11:47:59;;;;;;;2.23;1.00;;;;;;;;;;5073963;28;20780;-65
2021/12/02 11:50:29;;;;;;;1.97;1.00;;;;;;;;;;5067052;28;20484;-66
2021/12/02 11:52:56;;;;;;;1.67;0.60;;;;;;;;;;5054239;28;21010;-65
2021/12/02 11:55:25;;;;;;;2.00;0.83;;;;;;;;;;5068303;28;20791;-65
2021/12/02 11:57:53;;;;;;;2.73;0.90;;;;;;;;;;5057393;28;20804;-64
2021/12/02 12:00:36;;;;;;;2.10;0.70;;;;;;;;;;5067563;28;20428;-64
2021/12/02 12:03:04;;;;;;;2.10;0.83;;;;;;;;;;5072684;28;20527;-64
2021/12/02 12:05:34;;;;;;;2.30;0.90;;;;;;;;;;5072648;28;20436;-65
2021/12/02 12:08:01;;;;;;;4.00;1.00;;;;;;;;;;5072787;28;20472;-64
2021/12/02 12:10:32;;;;;;;2.00;0.90;;;;;;;;;;5072702;28;20432;-64
2021/12/02 12:13:17;;;;;;;2.93;0.97;;;;;;;;;;5072556;28;20538;-64
2021/12/02 12:15:46;;;;;;;2.00;0.70;;;;;;;;;;5071807;28;20543;-64
2021/12/02 12:18:20;;;;;;;2.13;1.00;;;;;;;;;;5072285;28;20483;-64
2021/12/02 12:20:56;;;;;;;3.23;1.53;;;;;;;;;;5072507;28;20440;-65
2021/12/02 12:23:35;;;;;;;2.33;1.07;;;;;;;;;;5073348;28;20581;-65
2021/12/02 12:26:18;;;;;;;4.80;1.10;;;;;;;;;;5073006;28;20515;-66
2021/12/02 12:29:04;;;;;;;4.60;1.20;;;;;;;;;;5072741;28;20432;-65
2021/12/02 12:31:32;;;;;;;2.20;0.93;;;;;;;;;;5073235;28;20435;-65
2021/12/02 12:34:00;;;;;;;5.43;1.47;;;;;;;;;;5073491;28;20494;-65
2021/12/02 12:36:40;;;;;;;3.20;0.97;;;;;;;;;;5073025;28;20440;-65
2021/12/02 12:39:19;;;;;;;3.83;0.77;;;;;;;;;;5073278;28;20474;-64
2021/12/02 12:42:07;;;;;;;3.10;0.97;;;;;;;;;;5072942;28;20501;-64
2021/12/02 12:44:46;;;;;;;2.20;0.90;;;;;;;;;;5072369;28;20432;-64
2021/12/02 12:47:14;;;;;;;2.30;0.80;;;;;;;;;;5071444;28;20468;-64
2021/12/02 12:49:41;;;;;;;1.60;0.77;;;;;;;;;;5072624;28;20494;-64
2021/12/02 12:52:16;;;;;;;3.20;0.97;;;;;;;;;;5072953;28;20545;-64
2021/12/02 12:54:43;;;;;;;4.03;1.27;;;;;;;;;;5073050;28;20467;-64
2021/12/02 12:57:10;;;;;;;2.50;1.17;;;;;;;;;;5073290;28;20549;-64
2021/12/02 12:59:49;;;;;;;2.23;1.00;;;;;;;;;;5073021;28;20460;-65
2021/12/02 13:02:17;;;;;;;1.93;0.90;;;;;;;;;;5072624;28;20519;-64
2021/12/02 13:04:52;;;;;;;2.57;0.90;;;;;;;;;;5072710;28;20517;-65
2021/12/02 13:07:22;;;;;;;8.00;1.60;;;;;;;;;;5072903;28;20428;-64
2021/12/02 13:09:55;;;;;;;1.70;0.87;;;;;;;;;;5072632;28;20437;-64
2021/12/02 13:12:28;;;;;;;2.27;1.40;;;;;;;;;;5072926;28;20479;-64
2021/12/02 13:14:55;;;;;;;2.87;1.50;;;;;;;;;;5072248;28;20566;-64
2021/12/02 13:17:39;;;;;;;2.30;0.90;;;;;;;;;;5070393;28;20436;-65
2021/12/02 13:20:24;;;;;;;1.60;0.80;;;;;;;;;;5072246;28;20486;-66
2021/12/02 13:23:06;;;;;;;2.43;0.83;;;;;;;;;;5072722;28;20436;-65
2021/12/02 13:25:43;;;;;;;2.10;0.90;;;;;;;;;;5072372;28;20485;-65
2021/12/02 13:28:14;;;;;;;3.20;0.90;;;;;;;;;;5072617;28;20441;-65
2021/12/02 13:30:41;;;;;;;2.73;0.83;;;;;;;;;;5072800;28;20440;-66
2021/12/02 13:33:08;;;;;;;2.90;0.90;;;;;;;;;;5072596;28;20480;-65
2021/12/02 13:35:36;;;;;;;2.73;1.10;;;;;;;;;;5072156;28;20881;-65
2021/12/02 13:38:03;;;;;;;2.00;0.83;;;;;;;;;;5072533;28;20477;-65
2021/12/02 13:40:34;;;;;;;1.93;0.87;;;;;;;;;;5072279;28;20493;-65
2021/12/02 13:43:04;;;;;;;3.20;0.93;;;;;;;;;;5072380;28;20916;-65
2021/12/02 13:45:32;;;;;;;1.80;0.90;;;;;;;;;;5072175;28;20866;-65
2021/12/02 13:48:12;;;;;;;2.20;1.00;;;;;;;;;;5072188;28;20507;-65
2021/12/02 13:50:42;;;;;;;3.80;1.00;;;;;;;;;;5070473;28;20924;-65
2021/12/02 13:53:14;;;;;;;2.20;1.00;;;;;;;;;;5071900;28;20519;-65
2021/12/02 13:55:46;;;;;;;2.77;0.80;;;;;;;;;;5072087;28;20441;-65
2021/12/02 13:58:28;;;;;;;1.90;0.87;;;;;;;;;;5072159;28;20446;-64
2021/12/02 14:00:59;;;;;;;2.45;0.80;;;;;;;;;;5071871;28;20432;-66
2021/12/02 14:03:29;;;;;;;5.95;1.15;;;;;;;;;;5072255;28;20293;-65
2021/12/02 14:06:00;;;;;;;5.07;1.00;;;;;;;;;;5071980;28;20198;-65
2021/12/02 14:08:29;;;;;;;2.38;1.00;;;;;;;;;;5071773;28;20653;-64
2021/12/02 14:10:59;;;;;;;2.40;1.13;;;;;;;;;;5071931;28;20194;-64
2021/12/02 14:13:31;;;;;;;1.85;0.90;;;;;;;;;;5072125;28;20303;-65
2021/12/02 14:16:02;;;;;;;3.00;1.13;;;;;;;;;;5071835;28;20755;-65
2021/12/02 14:18:30;;;;;;;4.18;1.65;;;;;;;;;;5074889;28;20236;-64
2021/12/02 14:20:59;;;;;;;3.45;1.15;;;;;;;;;;5075683;28;20562;-65
2021/12/02 14:23:35;;;;;;;2.40;1.20;;;;;;;;;;5075978;28;20585;-64
2021/12/02 14:26:04;;;;;;;2.88;0.82;;;;;;;;;;5073889;28;20194;-64
2021/12/02 14:28:35;;;;;;;2.25;1.02;;;;;;;;;;5075605;28;20681;-64
2021/12/02 14:31:04;;;;;;;1.90;0.88;;;;;;;;;;5075238;28;20185;-64
2021/12/02 14:33:34;;;;;;;2.63;1.25;;;;;;;;;;5075874;28;20251;-64
2021/12/02 14:36:07;;;;;;;2.40;0.80;;;;;;;;;;5075874;28;20190;-64
2021/12/02 14:38:46;;;;;;;3.60;1.17;;;;;;;;;;5075583;28;20247;-64
2021/12/02 14:41:16;;;;;;;2.78;0.80;;;;;;;;;;5075339;28;20633;-64
2021/12/02 14:43:51;;;;;;;1.50;0.60;;;;;;;;;;5075295;28;20244;-64
2021/12/02 14:46:20;;;;;;;4.20;2.65;;;;;;;;;;5075076;28;20201;-65
2021/12/02 14:48:48;;;;;;;2.55;1.40;;;;;;;;;;5074986;28;20226;-64
2021/12/02 14:51:17;;;;;;;1.80;0.90;;;;;;;;;;5075404;28;20187;-64
2021/12/02 14:53:47;;;;;;;2.53;1.20;;;;;;;;;;5074959;28;20218;-65
2021/12/02 14:56:25;;;;;;;2.10;1.00;;;;;;;;;;5075534;28;20205;-63
2021/12/02 14:59:22;;;;;;;1.67;0.82;;;;;;;;;;5075300;28;20194;-64
2021/12/02 15:02:03;;;;;;;2.10;0.88;;;;;;;;;;5074667;28;20244;-65
2021/12/02 15:04:31;;;;;;;2.10;0.70;;;;;;;;;;5075087;28;20235;-64
2021/12/02 15:07:06;;;;;;;2.35;1.05;;;;;;;;;;5074672;28;20252;-64
2021/12/02 15:09:38;;;;;;;1.70;0.90;;;;;;;;;;5074704;28;20233;-63
2021/12/02 15:12:12;;;;;;;3.03;1.23;;;;;;;;;;5074867;28;20327;-63
2021/12/02 15:14:41;;;;;;;3.40;1.58;;;;;;;;;;5074818;28;20212;-63